Aldrich, Minnesota
Current Conditions -  °F | °C
As of 8:54 AM on Tuesday 21 Oct 2014 (Local Time) from KSAZ Reporting Station
Clear Clear  
Wind Chill:   Ceiling: Unl
Heat Index:   Visibility: 10mi
Dew Point:   Wind: 5mph
Humidity: 100%   Direction: 130°SE
Pressure: 30.14"   Gusts: NA
Location:  46.38°N, 94.94°W
Report Text: KSAZ 211354Z AUTO 13004KT 10SM CLR 02/02 A3014 RMK AO2
Loading
Personal Weather Stations






























Interactive Weather Map
Tropical Storm Tracking
New forecast layout! Learn more

10-Day Weather Forecast

Advertisements
Track Severe Weather on mobile